sensor_id;sensor_type;location;lat;lon;timestamp;P1;durP1;ratioP1;P2;durP2;ratioP2
17283;SDS011;8760;52.248;20.952;2022-08-06T00:01:04;14.65;;;9.07;;
17283;SDS011;8760;52.248;20.952;2022-08-06T00:03:31;10.07;;;9.07;;
17283;SDS011;8760;52.248;20.952;2022-08-06T00:06:00;11.68;;;9.13;;
17283;SDS011;8760;52.248;20.952;2022-08-06T00:08:27;11.98;;;8.73;;
17283;SDS011;8760;52.248;20.952;2022-08-06T00:10:54;14.02;;;9.38;;
17283;SDS011;8760;52.248;20.952;2022-08-06T00:13:21;13.32;;;9.82;;
17283;SDS011;8760;52.248;20.952;2022-08-06T00:15:48;14.07;;;9.82;;
17283;SDS011;8760;52.248;20.952;2022-08-06T00:18:14;11.07;;;9.93;;
17283;SDS011;8760;52.248;20.952;2022-08-06T00:20:41;15.35;;;9.35;;
17283;SDS011;8760;52.248;20.952;2022-08-06T00:23:09;11.82;;;9.27;;
17283;SDS011;8760;52.248;20.952;2022-08-06T00:25:36;12.13;;;9.57;;
17283;SDS011;8760;52.248;20.952;2022-08-06T00:28:03;14.23;;;9.32;;
17283;SDS011;8760;52.248;20.952;2022-08-06T00:30:30;14.48;;;9.23;;
17283;SDS011;8760;52.248;20.952;2022-08-06T00:32:56;12.02;;;10.38;;
17283;SDS011;8760;52.248;20.952;2022-08-06T00:35:23;11.82;;;10.63;;
17283;SDS011;8760;52.248;20.952;2022-08-06T00:37:50;13.52;;;9.88;;
17283;SDS011;8760;52.248;20.952;2022-08-06T00:40:18;15.68;;;10.90;;
17283;SDS011;8760;52.248;20.952;2022-08-06T00:42:46;12.70;;;10.27;;
17283;SDS011;8760;52.248;20.952;2022-08-06T00:45:13;11.48;;;10.30;;
17283;SDS011;8760;52.248;20.952;2022-08-06T00:47:39;14.77;;;11.23;;
17283;SDS011;8760;52.248;20.952;2022-08-06T00:50:06;11.88;;;10.68;;
17283;SDS011;8760;52.248;20.952;2022-08-06T00:52:34;16.10;;;11.52;;
17283;SDS011;8760;52.248;20.952;2022-08-06T00:55:00;15.98;;;11.30;;
17283;SDS011;8760;52.248;20.952;2022-08-06T00:57:29;12.27;;;11.02;;
17283;SDS011;8760;52.248;20.952;2022-08-06T00:59:55;11.93;;;10.55;;
17283;SDS011;8760;52.248;20.952;2022-08-06T01:02:22;15.60;;;11.68;;
17283;SDS011;8760;52.248;20.952;2022-08-06T01:04:49;15.70;;;10.68;;
17283;SDS011;8760;52.248;20.952;2022-08-06T01:07:16;12.38;;;10.95;;
17283;SDS011;8760;52.248;20.952;2022-08-06T01:09:42;16.95;;;11.88;;
17283;SDS011;8760;52.248;20.952;2022-08-06T01:12:09;14.27;;;11.68;;
17283;SDS011;8760;52.248;20.952;2022-08-06T01:14:37;16.00;;;12.32;;
17283;SDS011;8760;52.248;20.952;2022-08-06T01:17:05;12.90;;;11.57;;
17283;SDS011;8760;52.248;20.952;2022-08-06T01:19:41;13.57;;;12.18;;
17283;SDS011;8760;52.248;20.952;2022-08-06T01:22:17;16.35;;;12.18;;
17283;SDS011;8760;52.248;20.952;2022-08-06T01:28:04;15.77;;;12.50;;
17283;SDS011;8760;52.248;20.952;2022-08-06T01:30:36;13.27;;;11.75;;
17283;SDS011;8760;52.248;20.952;2022-08-06T01:33:09;16.15;;;11.35;;
17283;SDS011;8760;52.248;20.952;2022-08-06T01:35:41;13.40;;;12.10;;
17283;SDS011;8760;52.248;20.952;2022-08-06T01:38:14;15.50;;;11.80;;
17283;SDS011;8760;52.248;20.952;2022-08-06T01:40:46;14.02;;;11.48;;
17283;SDS011;8760;52.248;20.952;2022-08-06T01:43:17;15.15;;;11.93;;
17283;SDS011;8760;52.248;20.952;2022-08-06T01:45:46;14.63;;;12.00;;
17283;SDS011;8760;52.248;20.952;2022-08-06T01:48:18;16.55;;;11.85;;
17283;SDS011;8760;52.248;20.952;2022-08-06T01:50:48;14.80;;;11.77;;
17283;SDS011;8760;52.248;20.952;2022-08-06T01:53:19;12.93;;;11.63;;
17283;SDS011;8760;52.248;20.952;2022-08-06T01:55:53;13.90;;;11.63;;
17283;SDS011;8760;52.248;20.952;2022-08-06T01:58:24;16.05;;;11.63;;
17283;SDS011;8760;52.248;20.952;2022-08-06T02:00:53;13.25;;;11.85;;
17283;SDS011;8760;52.248;20.952;2022-08-06T02:03:22;18.15;;;11.50;;
17283;SDS011;8760;52.248;20.952;2022-08-06T02:05:53;14.20;;;11.55;;
17283;SDS011;8760;52.248;20.952;2022-08-06T02:08:22;13.98;;;11.98;;
17283;SDS011;8760;52.248;20.952;2022-08-06T02:10:52;21.77;;;12.25;;
17283;SDS011;8760;52.248;20.952;2022-08-06T02:13:20;16.80;;;11.65;;
17283;SDS011;8760;52.248;20.952;2022-08-06T02:15:51;16.20;;;11.70;;
17283;SDS011;8760;52.248;20.952;2022-08-06T02:18:19;15.45;;;12.20;;
17283;SDS011;8760;52.248;20.952;2022-08-06T02:20:49;15.30;;;11.90;;
17283;SDS011;8760;52.248;20.952;2022-08-06T02:23:20;14.07;;;12.13;;
17283;SDS011;8760;52.248;20.952;2022-08-06T02:25:49;13.15;;;11.85;;
17283;SDS011;8760;52.248;20.952;2022-08-06T02:28:19;14.13;;;11.02;;
17283;SDS011;8760;52.248;20.952;2022-08-06T02:30:50;13.50;;;12.10;;
17283;SDS011;8760;52.248;20.952;2022-08-06T02:33:19;13.90;;;12.00;;
17283;SDS011;8760;52.248;20.952;2022-08-06T02:35:47;17.83;;;11.75;;
17283;SDS011;8760;52.248;20.952;2022-08-06T02:38:17;12.68;;;11.07;;
17283;SDS011;8760;52.248;20.952;2022-08-06T02:40:50;15.50;;;12.50;;
17283;SDS011;8760;52.248;20.952;2022-08-06T02:43:22;18.95;;;11.63;;
17283;SDS011;8760;52.248;20.952;2022-08-06T02:46:00;13.13;;;11.82;;
17283;SDS011;8760;52.248;20.952;2022-08-06T02:48:35;17.17;;;11.40;;
17283;SDS011;8760;52.248;20.952;2022-08-06T02:51:08;12.77;;;11.48;;
17283;SDS011;8760;52.248;20.952;2022-08-06T02:53:39;14.15;;;11.93;;
17283;SDS011;8760;52.248;20.952;2022-08-06T02:56:10;14.75;;;12.05;;
17283;SDS011;8760;52.248;20.952;2022-08-06T02:58:39;14.60;;;11.52;;
17283;SDS011;8760;52.248;20.952;2022-08-06T03:01:11;16.15;;;12.40;;
17283;SDS011;8760;52.248;20.952;2022-08-06T03:03:42;14.13;;;12.73;;
17283;SDS011;8760;52.248;20.952;2022-08-06T03:06:11;13.55;;;11.65;;
17283;SDS011;8760;52.248;20.952;2022-08-06T03:08:40;14.45;;;11.95;;
17283;SDS011;8760;52.248;20.952;2022-08-06T03:11:08;16.60;;;12.10;;
17283;SDS011;8760;52.248;20.952;2022-08-06T03:13:37;13.30;;;11.95;;
17283;SDS011;8760;52.248;20.952;2022-08-06T03:16:05;14.98;;;12.27;;
17283;SDS011;8760;52.248;20.952;2022-08-06T03:18:34;15.65;;;12.05;;
17283;SDS011;8760;52.248;20.952;2022-08-06T03:21:03;14.13;;;12.20;;
17283;SDS011;8760;52.248;20.952;2022-08-06T03:23:31;13.07;;;11.60;;
17283;SDS011;8760;52.248;20.952;2022-08-06T03:25:59;13.27;;;11.70;;
17283;SDS011;8760;52.248;20.952;2022-08-06T03:28:27;14.35;;;12.45;;
17283;SDS011;8760;52.248;20.952;2022-08-06T03:30:54;17.13;;;12.77;;
17283;SDS011;8760;52.248;20.952;2022-08-06T03:33:23;13.27;;;11.88;;
17283;SDS011;8760;52.248;20.952;2022-08-06T03:35:51;12.77;;;11.35;;
17283;SDS011;8760;52.248;20.952;2022-08-06T03:38:20;12.55;;;11.25;;
17283;SDS011;8760;52.248;20.952;2022-08-06T03:40:48;14.90;;;11.40;;
17283;SDS011;8760;52.248;20.952;2022-08-06T03:43:15;17.10;;;11.73;;
17283;SDS011;8760;52.248;20.952;2022-08-06T03:45:43;15.27;;;11.25;;
17283;SDS011;8760;52.248;20.952;2022-08-06T03:48:15;13.20;;;11.80;;
17283;SDS011;8760;52.248;20.952;2022-08-06T03:50:46;13.48;;;11.43;;
17283;SDS011;8760;52.248;20.952;2022-08-06T03:53:17;13.18;;;11.50;;
17283;SDS011;8760;52.248;20.952;2022-08-06T03:55:47;18.95;;;12.30;;
17283;SDS011;8760;52.248;20.952;2022-08-06T03:58:15;13.65;;;11.77;;
17283;SDS011;8760;52.248;20.952;2022-08-06T04:00:45;14.60;;;12.02;;
17283;SDS011;8760;52.248;20.952;2022-08-06T04:03:16;19.10;;;12.35;;
17283;SDS011;8760;52.248;20.952;2022-08-06T04:05:44;15.90;;;12.25;;
17283;SDS011;8760;52.248;20.952;2022-08-06T04:08:12;14.20;;;11.80;;
17283;SDS011;8760;52.248;20.952;2022-08-06T04:10:42;14.80;;;12.80;;
17283;SDS011;8760;52.248;20.952;2022-08-06T04:13:13;16.75;;;12.43;;
17283;SDS011;8760;52.248;20.952;2022-08-06T04:15:41;15.20;;;11.32;;
17283;SDS011;8760;52.248;20.952;2022-08-06T04:18:09;16.52;;;11.90;;
17283;SDS011;8760;52.248;20.952;2022-08-06T04:20:39;15.02;;;12.15;;
17283;SDS011;8760;52.248;20.952;2022-08-06T04:23:07;12.40;;;11.10;;
17283;SDS011;8760;52.248;20.952;2022-08-06T04:25:36;14.02;;;12.25;;
17283;SDS011;8760;52.248;20.952;2022-08-06T04:28:08;13.05;;;11.85;;
17283;SDS011;8760;52.248;20.952;2022-08-06T04:30:35;15.35;;;12.20;;
17283;SDS011;8760;52.248;20.952;2022-08-06T04:33:05;15.63;;;11.65;;
17283;SDS011;8760;52.248;20.952;2022-08-06T04:35:35;14.23;;;11.95;;
17283;SDS011;8760;52.248;20.952;2022-08-06T04:38:05;15.05;;;11.88;;
17283;SDS011;8760;52.248;20.952;2022-08-06T04:40:32;17.55;;;13.27;;
17283;SDS011;8760;52.248;20.952;2022-08-06T04:42:59;14.85;;;11.38;;
17283;SDS011;8760;52.248;20.952;2022-08-06T04:45:27;11.82;;;10.63;;
17283;SDS011;8760;52.248;20.952;2022-08-06T04:47:55;12.73;;;11.23;;
17283;SDS011;8760;52.248;20.952;2022-08-06T04:50:22;13.43;;;10.73;;
17283;SDS011;8760;52.248;20.952;2022-08-06T04:52:49;11.38;;;10.18;;
17283;SDS011;8760;52.248;20.952;2022-08-06T04:55:18;13.32;;;10.27;;
17283;SDS011;8760;52.248;20.952;2022-08-06T04:57:45;11.80;;;10.00;;
17283;SDS011;8760;52.248;20.952;2022-08-06T05:00:13;11.00;;;9.73;;
17283;SDS011;8760;52.248;20.952;2022-08-06T05:02:41;11.07;;;8.75;;
17283;SDS011;8760;52.248;20.952;2022-08-06T05:05:08;10.98;;;8.82;;
17283;SDS011;8760;52.248;20.952;2022-08-06T05:07:36;11.18;;;8.90;;
17283;SDS011;8760;52.248;20.952;2022-08-06T05:10:06;9.32;;;8.32;;
17283;SDS011;8760;52.248;20.952;2022-08-06T05:12:36;11.45;;;8.25;;
17283;SDS011;8760;52.248;20.952;2022-08-06T05:15:07;10.27;;;7.50;;
17283;SDS011;8760;52.248;20.952;2022-08-06T05:17:38;12.05;;;7.55;;
17283;SDS011;8760;52.248;20.952;2022-08-06T05:20:12;9.38;;;7.72;;
17283;SDS011;8760;52.248;20.952;2022-08-06T05:22:42;8.68;;;7.00;;
17283;SDS011;8760;52.248;20.952;2022-08-06T05:25:11;11.95;;;6.88;;
17283;SDS011;8760;52.248;20.952;2022-08-06T05:27:39;8.25;;;7.07;;
17283;SDS011;8760;52.248;20.952;2022-08-06T05:30:06;9.00;;;6.45;;
17283;SDS011;8760;52.248;20.952;2022-08-06T05:32:39;7.57;;;6.80;;
17283;SDS011;8760;52.248;20.952;2022-08-06T05:35:08;6.80;;;6.20;;
17283;SDS011;8760;52.248;20.952;2022-08-06T05:37:35;7.57;;;6.88;;
17283;SDS011;8760;52.248;20.952;2022-08-06T05:40:03;7.82;;;6.32;;
17283;SDS011;8760;52.248;20.952;2022-08-06T05:42:31;9.20;;;6.97;;
17283;SDS011;8760;52.248;20.952;2022-08-06T05:44:58;7.28;;;6.55;;
17283;SDS011;8760;52.248;20.952;2022-08-06T05:47:26;8.02;;;6.45;;
17283;SDS011;8760;52.248;20.952;2022-08-06T05:50:00;7.13;;;6.35;;
17283;SDS011;8760;52.248;20.952;2022-08-06T05:52:36;6.28;;;5.75;;
17283;SDS011;8760;52.248;20.952;2022-08-06T05:55:11;11.75;;;6.63;;
17283;SDS011;8760;52.248;20.952;2022-08-06T05:57:44;6.55;;;5.95;;
17283;SDS011;8760;52.248;20.952;2022-08-06T06:00:16;11.40;;;6.32;;
17283;SDS011;8760;52.248;20.952;2022-08-06T06:02:45;15.60;;;6.80;;
17283;SDS011;8760;52.248;20.952;2022-08-06T06:05:15;8.15;;;7.18;;
17283;SDS011;8760;52.248;20.952;2022-08-06T06:07:44;8.13;;;7.07;;
17283;SDS011;8760;52.248;20.952;2022-08-06T06:10:11;7.10;;;6.50;;
17283;SDS011;8760;52.248;20.952;2022-08-06T06:12:38;7.35;;;6.65;;
17283;SDS011;8760;52.248;20.952;2022-08-06T06:15:06;8.60;;;7.80;;
17283;SDS011;8760;52.248;20.952;2022-08-06T06:17:40;11.07;;;7.75;;
17283;SDS011;8760;52.248;20.952;2022-08-06T06:20:16;8.23;;;7.47;;
17283;SDS011;8760;52.248;20.952;2022-08-06T06:22:46;9.63;;;7.38;;
17283;SDS011;8760;52.248;20.952;2022-08-06T06:25:21;9.05;;;7.50;;
17283;SDS011;8760;52.248;20.952;2022-08-06T06:27:53;10.50;;;7.05;;
17283;SDS011;8760;52.248;20.952;2022-08-06T06:30:26;9.10;;;6.88;;
17283;SDS011;8760;52.248;20.952;2022-08-06T06:33:17;10.38;;;7.72;;
17283;SDS011;8760;52.248;20.952;2022-08-06T06:35:50;7.80;;;7.15;;
17283;SDS011;8760;52.248;20.952;2022-08-06T06:38:25;9.13;;;7.40;;
17283;SDS011;8760;52.248;20.952;2022-08-06T06:41:02;8.77;;;7.63;;
17283;SDS011;8760;52.248;20.952;2022-08-06T06:43:37;8.93;;;7.22;;
17283;SDS011;8760;52.248;20.952;2022-08-06T06:46:09;8.50;;;7.22;;
17283;SDS011;8760;52.248;20.952;2022-08-06T06:48:41;8.77;;;7.60;;
17283;SDS011;8760;52.248;20.952;2022-08-06T06:51:13;8.43;;;6.95;;
17283;SDS011;8760;52.248;20.952;2022-08-06T06:53:46;7.25;;;6.63;;
17283;SDS011;8760;52.248;20.952;2022-08-06T06:56:16;8.23;;;6.60;;
17283;SDS011;8760;52.248;20.952;2022-08-06T06:58:46;8.18;;;7.25;;
17283;SDS011;8760;52.248;20.952;2022-08-06T07:01:16;7.90;;;6.72;;
17283;SDS011;8760;52.248;20.952;2022-08-06T07:03:45;7.85;;;6.93;;
17283;SDS011;8760;52.248;20.952;2022-08-06T07:06:15;9.27;;;7.13;;
17283;SDS011;8760;52.248;20.952;2022-08-06T07:08:43;8.13;;;7.13;;
17283;SDS011;8760;52.248;20.952;2022-08-06T07:11:13;10.23;;;7.10;;
17283;SDS011;8760;52.248;20.952;2022-08-06T07:13:43;9.25;;;6.65;;
17283;SDS011;8760;52.248;20.952;2022-08-06T07:16:11;11.07;;;7.10;;
17283;SDS011;8760;52.248;20.952;2022-08-06T07:18:41;9.65;;;7.10;;
17283;SDS011;8760;52.248;20.952;2022-08-06T07:21:09;10.57;;;9.18;;
17283;SDS011;8760;52.248;20.952;2022-08-06T07:23:40;10.95;;;8.32;;
17283;SDS011;8760;52.248;20.952;2022-08-06T07:26:08;9.55;;;8.02;;
17283;SDS011;8760;52.248;20.952;2022-08-06T07:28:38;10.23;;;7.88;;
17283;SDS011;8760;52.248;20.952;2022-08-06T07:31:05;8.63;;;6.90;;
17283;SDS011;8760;52.248;20.952;2022-08-06T07:33:34;8.00;;;7.13;;
17283;SDS011;8760;52.248;20.952;2022-08-06T07:36:05;7.93;;;6.30;;
17283;SDS011;8760;52.248;20.952;2022-08-06T07:38:33;8.15;;;6.78;;
17283;SDS011;8760;52.248;20.952;2022-08-06T07:41:04;10.18;;;7.10;;
17283;SDS011;8760;52.248;20.952;2022-08-06T07:43:32;8.68;;;6.70;;
17283;SDS011;8760;52.248;20.952;2022-08-06T07:46:05;7.45;;;6.32;;
17283;SDS011;8760;52.248;20.952;2022-08-06T07:48:35;6.78;;;6.13;;
17283;SDS011;8760;52.248;20.952;2022-08-06T07:51:06;6.60;;;5.35;;
17283;SDS011;8760;52.248;20.952;2022-08-06T07:53:34;6.72;;;4.72;;
17283;SDS011;8760;52.248;20.952;2022-08-06T07:56:05;6.65;;;4.78;;
17283;SDS011;8760;52.248;20.952;2022-08-06T07:58:34;5.93;;;4.15;;
17283;SDS011;8760;52.248;20.952;2022-08-06T08:01:02;4.85;;;3.88;;
17283;SDS011;8760;52.248;20.952;2022-08-06T08:03:29;4.68;;;3.97;;
17283;SDS011;8760;52.248;20.952;2022-08-06T08:06:15;4.72;;;3.78;;
17283;SDS011;8760;52.248;20.952;2022-08-06T08:08:47;6.38;;;4.35;;
17283;SDS011;8760;52.248;20.952;2022-08-06T08:11:18;5.15;;;3.97;;
17283;SDS011;8760;52.248;20.952;2022-08-06T08:13:46;3.92;;;3.53;;
17283;SDS011;8760;52.248;20.952;2022-08-06T08:16:13;5.20;;;4.28;;
17283;SDS011;8760;52.248;20.952;2022-08-06T08:18:40;6.20;;;4.05;;
17283;SDS011;8760;52.248;20.952;2022-08-06T08:21:07;6.28;;;4.32;;
17283;SDS011;8760;52.248;20.952;2022-08-06T08:23:35;5.13;;;4.60;;
17283;SDS011;8760;52.248;20.952;2022-08-06T08:26:05;7.90;;;6.18;;
17283;SDS011;8760;52.248;20.952;2022-08-06T08:28:33;5.80;;;4.35;;
17283;SDS011;8760;52.248;20.952;2022-08-06T08:31:00;4.18;;;3.72;;
17283;SDS011;8760;52.248;20.952;2022-08-06T08:33:28;4.40;;;3.50;;
17283;SDS011;8760;52.248;20.952;2022-08-06T08:35:56;3.78;;;3.17;;
17283;SDS011;8760;52.248;20.952;2022-08-06T08:38:22;4.10;;;3.22;;
17283;SDS011;8760;52.248;20.952;2022-08-06T08:40:50;4.15;;;3.75;;
17283;SDS011;8760;52.248;20.952;2022-08-06T08:43:29;3.80;;;3.40;;
17283;SDS011;8760;52.248;20.952;2022-08-06T08:46:01;4.28;;;3.30;;
17283;SDS011;8760;52.248;20.952;2022-08-06T08:48:30;4.97;;;3.58;;
17283;SDS011;8760;52.248;20.952;2022-08-06T08:50:58;4.85;;;4.07;;
17283;SDS011;8760;52.248;20.952;2022-08-06T08:53:29;5.45;;;4.95;;
17283;SDS011;8760;52.248;20.952;2022-08-06T08:56:00;4.18;;;3.58;;
17283;SDS011;8760;52.248;20.952;2022-08-06T08:58:28;6.22;;;4.50;;
17283;SDS011;8760;52.248;20.952;2022-08-06T09:00:57;6.40;;;4.80;;
17283;SDS011;8760;52.248;20.952;2022-08-06T09:03:25;4.22;;;3.78;;
17283;SDS011;8760;52.248;20.952;2022-08-06T09:05:52;4.57;;;3.85;;
17283;SDS011;8760;52.248;20.952;2022-08-06T09:08:19;5.25;;;3.33;;
17283;SDS011;8760;52.248;20.952;2022-08-06T09:10:46;4.10;;;3.63;;
17283;SDS011;8760;52.248;20.952;2022-08-06T09:13:13;3.22;;;2.92;;
17283;SDS011;8760;52.248;20.952;2022-08-06T09:15:40;4.50;;;3.25;;
17283;SDS011;8760;52.248;20.952;2022-08-06T09:18:07;8.13;;;3.70;;
17283;SDS011;8760;52.248;20.952;2022-08-06T09:20:35;5.28;;;3.35;;
17283;SDS011;8760;52.248;20.952;2022-08-06T09:23:03;5.35;;;3.60;;
17283;SDS011;8760;52.248;20.952;2022-08-06T09:25:37;4.60;;;3.72;;
17283;SDS011;8760;52.248;20.952;2022-08-06T09:28:08;5.72;;;3.30;;
17283;SDS011;8760;52.248;20.952;2022-08-06T09:30:36;3.63;;;3.25;;
17283;SDS011;8760;52.248;20.952;2022-08-06T09:33:09;4.63;;;3.58;;
17283;SDS011;8760;52.248;20.952;2022-08-06T09:35:38;4.15;;;3.42;;
17283;SDS011;8760;52.248;20.952;2022-08-06T09:38:06;4.68;;;3.28;;
17283;SDS011;8760;52.248;20.952;2022-08-06T09:40:34;3.78;;;2.70;;
17283;SDS011;8760;52.248;20.952;2022-08-06T09:43:01;3.40;;;3.00;;
17283;SDS011;8760;52.248;20.952;2022-08-06T09:45:28;6.22;;;3.00;;
17283;SDS011;8760;52.248;20.952;2022-08-06T09:48:03;3.72;;;3.30;;
17283;SDS011;8760;52.248;20.952;2022-08-06T09:50:35;3.85;;;3.15;;
17283;SDS011;8760;52.248;20.952;2022-08-06T09:53:07;4.68;;;3.13;;
17283;SDS011;8760;52.248;20.952;2022-08-06T09:55:34;4.55;;;3.58;;
17283;SDS011;8760;52.248;20.952;2022-08-06T09:58:02;3.72;;;3.33;;
17283;SDS011;8760;52.248;20.952;2022-08-06T10:00:29;5.55;;;3.10;;
17283;SDS011;8760;52.248;20.952;2022-08-06T10:02:57;6.43;;;4.28;;
17283;SDS011;8760;52.248;20.952;2022-08-06T10:05:25;6.30;;;4.22;;
17283;SDS011;8760;52.248;20.952;2022-08-06T10:08:07;7.72;;;3.70;;
17283;SDS011;8760;52.248;20.952;2022-08-06T10:10:43;5.53;;;3.75;;
17283;SDS011;8760;52.248;20.952;2022-08-06T10:13:12;6.78;;;4.20;;
17283;SDS011;8760;52.248;20.952;2022-08-06T10:15:41;6.50;;;3.97;;
17283;SDS011;8760;52.248;20.952;2022-08-06T10:18:09;5.93;;;4.00;;
17283;SDS011;8760;52.248;20.952;2022-08-06T10:20:36;6.40;;;3.13;;
17283;SDS011;8760;52.248;20.952;2022-08-06T10:23:03;4.93;;;3.30;;
17283;SDS011;8760;52.248;20.952;2022-08-06T10:25:38;6.28;;;3.60;;
17283;SDS011;8760;52.248;20.952;2022-08-06T10:28:04;5.15;;;2.90;;
17283;SDS011;8760;52.248;20.952;2022-08-06T10:30:31;2.58;;;2.38;;
17283;SDS011;8760;52.248;20.952;2022-08-06T10:32:59;2.90;;;2.40;;
17283;SDS011;8760;52.248;20.952;2022-08-06T10:35:30;5.95;;;2.90;;
17283;SDS011;8760;52.248;20.952;2022-08-06T10:37:58;3.78;;;2.60;;
17283;SDS011;8760;52.248;20.952;2022-08-06T10:40:30;3.10;;;2.55;;
17283;SDS011;8760;52.248;20.952;2022-08-06T10:43:01;4.00;;;2.25;;
17283;SDS011;8760;52.248;20.952;2022-08-06T10:45:31;4.32;;;2.30;;
17283;SDS011;8760;52.248;20.952;2022-08-06T10:47:59;3.78;;;2.30;;
17283;SDS011;8760;52.248;20.952;2022-08-06T10:50:26;2.65;;;1.88;;
17283;SDS011;8760;52.248;20.952;2022-08-06T10:52:53;4.65;;;2.20;;
17283;SDS011;8760;52.248;20.952;2022-08-06T10:55:20;4.30;;;2.63;;
17283;SDS011;8760;52.248;20.952;2022-08-06T10:57:49;4.95;;;2.78;;
17283;SDS011;8760;52.248;20.952;2022-08-06T11:00:16;5.60;;;2.63;;
17283;SDS011;8760;52.248;20.952;2022-08-06T11:02:46;4.88;;;2.90;;
17283;SDS011;8760;52.248;20.952;2022-08-06T11:05:19;5.60;;;2.80;;
17283;SDS011;8760;52.248;20.952;2022-08-06T11:07:58;4.32;;;2.50;;
17283;SDS011;8760;52.248;20.952;2022-08-06T11:10:58;6.68;;;2.40;;
17283;SDS011;8760;52.248;20.952;2022-08-06T11:13:54;3.05;;;2.55;;
17283;SDS011;8760;52.248;20.952;2022-08-06T11:16:26;5.82;;;2.63;;
17283;SDS011;8760;52.248;20.952;2022-08-06T11:19:01;4.78;;;2.70;;
17283;SDS011;8760;52.248;20.952;2022-08-06T11:21:37;5.53;;;2.58;;
17283;SDS011;8760;52.248;20.952;2022-08-06T11:24:05;3.88;;;2.97;;
17283;SDS011;8760;52.248;20.952;2022-08-06T11:26:33;9.75;;;3.70;;
17283;SDS011;8760;52.248;20.952;2022-08-06T11:29:03;5.97;;;3.42;;
17283;SDS011;8760;52.248;20.952;2022-08-06T11:31:38;4.57;;;2.85;;
17283;SDS011;8760;52.248;20.952;2022-08-06T11:34:07;4.85;;;2.80;;
17283;SDS011;8760;52.248;20.952;2022-08-06T11:36:45;4.63;;;2.63;;
17283;SDS011;8760;52.248;20.952;2022-08-06T11:39:14;4.13;;;2.75;;
17283;SDS011;8760;52.248;20.952;2022-08-06T11:41:43;5.40;;;2.33;;
17283;SDS011;8760;52.248;20.952;2022-08-06T11:44:13;5.65;;;3.05;;
17283;SDS011;8760;52.248;20.952;2022-08-06T11:46:42;3.03;;;2.05;;
17283;SDS011;8760;52.248;20.952;2022-08-06T11:49:14;3.42;;;2.38;;
17283;SDS011;8760;52.248;20.952;2022-08-06T11:51:43;3.22;;;2.00;;
17283;SDS011;8760;52.248;20.952;2022-08-06T11:54:11;3.75;;;2.40;;
17283;SDS011;8760;52.248;20.952;2022-08-06T12:00:05;4.90;;;2.97;;
17283;SDS011;8760;52.248;20.952;2022-08-06T12:02:51;4.20;;;2.65;;
17283;SDS011;8760;52.248;20.952;2022-08-06T12:05:32;5.43;;;2.90;;
17283;SDS011;8760;52.248;20.952;2022-08-06T12:13:55;5.30;;;3.22;;
17283;SDS011;8760;52.248;20.952;2022-08-06T12:16:28;5.70;;;3.20;;
17283;SDS011;8760;52.248;20.952;2022-08-06T12:18:59;4.57;;;2.63;;
17283;SDS011;8760;52.248;20.952;2022-08-06T12:21:26;6.85;;;2.90;;
17283;SDS011;8760;52.248;20.952;2022-08-06T12:23:54;4.47;;;3.25;;
17283;SDS011;8760;52.248;20.952;2022-08-06T12:26:21;5.57;;;2.90;;
17283;SDS011;8760;52.248;20.952;2022-08-06T12:28:48;4.25;;;2.70;;
17283;SDS011;8760;52.248;20.952;2022-08-06T12:33:59;5.07;;;3.22;;
17283;SDS011;8760;52.248;20.952;2022-08-06T12:36:28;7.00;;;3.10;;
17283;SDS011;8760;52.248;20.952;2022-08-06T12:38:56;5.47;;;2.22;;
17283;SDS011;8760;52.248;20.952;2022-08-06T12:41:31;5.07;;;2.40;;
17283;SDS011;8760;52.248;20.952;2022-08-06T12:43:59;6.22;;;2.47;;
17283;SDS011;8760;52.248;20.952;2022-08-06T12:46:26;5.15;;;2.65;;
17283;SDS011;8760;52.248;20.952;2022-08-06T12:48:55;4.25;;;2.78;;
17283;SDS011;8760;52.248;20.952;2022-08-06T12:51:21;4.90;;;2.80;;
17283;SDS011;8760;52.248;20.952;2022-08-06T12:53:49;5.00;;;2.95;;
17283;SDS011;8760;52.248;20.952;2022-08-06T12:56:18;4.60;;;2.65;;
17283;SDS011;8760;52.248;20.952;2022-08-06T12:58:46;4.05;;;3.47;;
17283;SDS011;8760;52.248;20.952;2022-08-06T13:01:15;5.68;;;2.78;;
17283;SDS011;8760;52.248;20.952;2022-08-06T13:03:45;5.32;;;2.92;;
17283;SDS011;8760;52.248;20.952;2022-08-06T13:06:14;6.95;;;3.13;;
17283;SDS011;8760;52.248;20.952;2022-08-06T13:08:44;6.45;;;3.08;;
17283;SDS011;8760;52.248;20.952;2022-08-06T13:11:13;5.53;;;3.20;;
17283;SDS011;8760;52.248;20.952;2022-08-06T13:13:40;5.60;;;3.70;;
17283;SDS011;8760;52.248;20.952;2022-08-06T13:16:09;6.68;;;3.55;;
17283;SDS011;8760;52.248;20.952;2022-08-06T13:18:37;8.40;;;3.70;;
17283;SDS011;8760;52.248;20.952;2022-08-06T13:21:14;5.80;;;2.42;;
17283;SDS011;8760;52.248;20.952;2022-08-06T13:23:44;5.03;;;2.83;;
17283;SDS011;8760;52.248;20.952;2022-08-06T13:26:14;6.25;;;2.78;;
17283;SDS011;8760;52.248;20.952;2022-08-06T13:31:31;3.40;;;2.40;;
17283;SDS011;8760;52.248;20.952;2022-08-06T13:33:58;6.22;;;2.50;;
17283;SDS011;8760;52.248;20.952;2022-08-06T13:36:27;5.75;;;2.63;;
17283;SDS011;8760;52.248;20.952;2022-08-06T13:38:55;8.07;;;2.60;;
17283;SDS011;8760;52.248;20.952;2022-08-06T13:41:25;5.57;;;2.30;;
17283;SDS011;8760;52.248;20.952;2022-08-06T13:43:53;7.72;;;3.15;;
17283;SDS011;8760;52.248;20.952;2022-08-06T13:46:21;5.07;;;2.90;;
17283;SDS011;8760;52.248;20.952;2022-08-06T13:48:51;6.03;;;2.67;;
17283;SDS011;8760;52.248;20.952;2022-08-06T13:51:19;4.63;;;2.40;;
17283;SDS011;8760;52.248;20.952;2022-08-06T13:53:48;4.85;;;2.38;;
17283;SDS011;8760;52.248;20.952;2022-08-06T13:56:15;7.22;;;3.22;;
17283;SDS011;8760;52.248;20.952;2022-08-06T13:58:43;6.25;;;2.22;;
17283;SDS011;8760;52.248;20.952;2022-08-06T14:01:10;6.63;;;2.40;;
17283;SDS011;8760;52.248;20.952;2022-08-06T14:03:37;4.70;;;2.53;;
17283;SDS011;8760;52.248;20.952;2022-08-06T14:06:05;7.93;;;2.75;;
17283;SDS011;8760;52.248;20.952;2022-08-06T14:08:32;6.25;;;2.75;;
17283;SDS011;8760;52.248;20.952;2022-08-06T14:11:00;5.75;;;2.33;;
17283;SDS011;8760;52.248;20.952;2022-08-06T14:13:27;3.08;;;1.75;;
17283;SDS011;8760;52.248;20.952;2022-08-06T14:15:54;5.10;;;2.20;;
17283;SDS011;8760;52.248;20.952;2022-08-06T14:18:21;6.47;;;2.00;;
17283;SDS011;8760;52.248;20.952;2022-08-06T14:20:48;3.88;;;1.85;;
17283;SDS011;8760;52.248;20.952;2022-08-06T14:23:14;2.05;;;1.20;;
17283;SDS011;8760;52.248;20.952;2022-08-06T14:25:41;2.15;;;1.80;;
17283;SDS011;8760;52.248;20.952;2022-08-06T14:28:09;3.47;;;1.40;;
17283;SDS011;8760;52.248;20.952;2022-08-06T14:30:36;4.00;;;1.25;;
17283;SDS011;8760;52.248;20.952;2022-08-06T14:33:03;3.95;;;1.38;;
17283;SDS011;8760;52.248;20.952;2022-08-06T14:35:33;2.88;;;1.30;;
17283;SDS011;8760;52.248;20.952;2022-08-06T14:38:01;2.83;;;1.20;;
17283;SDS011;8760;52.248;20.952;2022-08-06T14:40:28;4.28;;;1.30;;
17283;SDS011;8760;52.248;20.952;2022-08-06T14:43:14;8.20;;;1.33;;
17283;SDS011;8760;52.248;20.952;2022-08-06T14:45:58;5.63;;;1.98;;
17283;SDS011;8760;52.248;20.952;2022-08-06T14:48:25;3.30;;;1.80;;
17283;SDS011;8760;52.248;20.952;2022-08-06T14:50:52;4.43;;;1.80;;
17283;SDS011;8760;52.248;20.952;2022-08-06T14:53:19;4.90;;;1.75;;
17283;SDS011;8760;52.248;20.952;2022-08-06T14:55:46;1.95;;;1.60;;
17283;SDS011;8760;52.248;20.952;2022-08-06T14:58:14;4.68;;;1.67;;
17283;SDS011;8760;52.248;20.952;2022-08-06T15:00:40;5.88;;;2.25;;
17283;SDS011;8760;52.248;20.952;2022-08-06T15:03:12;3.50;;;1.73;;
17283;SDS011;8760;52.248;20.952;2022-08-06T15:05:39;6.18;;;1.80;;
17283;SDS011;8760;52.248;20.952;2022-08-06T15:08:07;5.68;;;1.80;;
17283;SDS011;8760;52.248;20.952;2022-08-06T15:10:33;3.58;;;2.33;;